sensor_id;sensor_type;location;lat;lon;timestamp;P1;durP1;ratioP1;P2;durP2;ratioP2
12976;SDS011;6553;48.412;9.514;2024-01-30T00:02:15;3.42;;;3.15;;
12976;SDS011;6553;48.412;9.514;2024-01-30T00:04:40;3.88;;;3.58;;
12976;SDS011;6553;48.412;9.514;2024-01-30T00:07:06;3.75;;;3.45;;
12976;SDS011;6553;48.412;9.514;2024-01-30T00:09:32;3.58;;;3.28;;
12976;SDS011;6553;48.412;9.514;2024-01-30T00:11:58;3.88;;;3.42;;
12976;SDS011;6553;48.412;9.514;2024-01-30T00:14:24;3.70;;;3.40;;
12976;SDS011;6553;48.412;9.514;2024-01-30T00:16:50;3.30;;;3.10;;
12976;SDS011;6553;48.412;9.514;2024-01-30T00:19:17;3.70;;;3.40;;
12976;SDS011;6553;48.412;9.514;2024-01-30T00:21:42;3.83;;;3.53;;
12976;SDS011;6553;48.412;9.514;2024-01-30T00:24:08;3.50;;;3.20;;
12976;SDS011;6553;48.412;9.514;2024-01-30T00:26:34;3.50;;;3.20;;
12976;SDS011;6553;48.412;9.514;2024-01-30T00:29:00;3.75;;;3.47;;
12976;SDS011;6553;48.412;9.514;2024-01-30T00:31:26;3.08;;;2.88;;
12976;SDS011;6553;48.412;9.514;2024-01-30T00:33:52;3.38;;;3.08;;
12976;SDS011;6553;48.412;9.514;2024-01-30T00:36:17;3.55;;;3.25;;
12976;SDS011;6553;48.412;9.514;2024-01-30T00:38:43;3.15;;;2.95;;
12976;SDS011;6553;48.412;9.514;2024-01-30T00:41:09;3.60;;;3.30;;
12976;SDS011;6553;48.412;9.514;2024-01-30T00:43:35;3.72;;;3.42;;
12976;SDS011;6553;48.412;9.514;2024-01-30T00:46:02;4.20;;;3.13;;
12976;SDS011;6553;48.412;9.514;2024-01-30T00:48:28;3.30;;;3.00;;
12976;SDS011;6553;48.412;9.514;2024-01-30T00:50:54;3.60;;;3.30;;
12976;SDS011;6553;48.412;9.514;2024-01-30T00:53:20;3.30;;;3.00;;
12976;SDS011;6553;48.412;9.514;2024-01-30T00:55:46;3.38;;;3.10;;
12976;SDS011;6553;48.412;9.514;2024-01-30T00:58:12;3.60;;;3.30;;
12976;SDS011;6553;48.412;9.514;2024-01-30T01:00:38;3.78;;;3.47;;
12976;SDS011;6553;48.412;9.514;2024-01-30T01:03:04;3.70;;;3.40;;
12976;SDS011;6553;48.412;9.514;2024-01-30T01:05:30;3.65;;;3.35;;
12976;SDS011;6553;48.412;9.514;2024-01-30T01:07:56;3.60;;;3.30;;
12976;SDS011;6553;48.412;9.514;2024-01-30T01:10:21;3.88;;;3.58;;
12976;SDS011;6553;48.412;9.514;2024-01-30T01:12:48;3.45;;;3.15;;
12976;SDS011;6553;48.412;9.514;2024-01-30T01:15:14;3.58;;;3.28;;
12976;SDS011;6553;48.412;9.514;2024-01-30T01:17:39;3.40;;;3.10;;
12976;SDS011;6553;48.412;9.514;2024-01-30T01:20:06;3.47;;;3.17;;
12976;SDS011;6553;48.412;9.514;2024-01-30T01:22:33;3.53;;;3.22;;
12976;SDS011;6553;48.412;9.514;2024-01-30T01:25:00;3.80;;;3.50;;
12976;SDS011;6553;48.412;9.514;2024-01-30T01:27:26;4.25;;;3.47;;
12976;SDS011;6553;48.412;9.514;2024-01-30T01:29:52;3.95;;;3.55;;
12976;SDS011;6553;48.412;9.514;2024-01-30T01:32:18;4.15;;;3.75;;
12976;SDS011;6553;48.412;9.514;2024-01-30T01:34:44;3.65;;;3.35;;
12976;SDS011;6553;48.412;9.514;2024-01-30T01:37:10;3.92;;;3.33;;
12976;SDS011;6553;48.412;9.514;2024-01-30T01:39:36;3.78;;;3.28;;
12976;SDS011;6553;48.412;9.514;2024-01-30T01:42:02;3.83;;;3.53;;
12976;SDS011;6553;48.412;9.514;2024-01-30T01:44:28;3.75;;;3.45;;
12976;SDS011;6553;48.412;9.514;2024-01-30T01:46:54;3.92;;;3.53;;
12976;SDS011;6553;48.412;9.514;2024-01-30T01:49:22;3.70;;;3.40;;
12976;SDS011;6553;48.412;9.514;2024-01-30T01:51:50;3.30;;;3.10;;
12976;SDS011;6553;48.412;9.514;2024-01-30T01:54:19;3.90;;;3.58;;
12976;SDS011;6553;48.412;9.514;2024-01-30T01:56:45;3.38;;;3.05;;
12976;SDS011;6553;48.412;9.514;2024-01-30T01:59:11;3.78;;;3.47;;
12976;SDS011;6553;48.412;9.514;2024-01-30T02:01:37;3.70;;;3.08;;
12976;SDS011;6553;48.412;9.514;2024-01-30T02:04:06;3.35;;;3.00;;
12976;SDS011;6553;48.412;9.514;2024-01-30T02:06:34;3.53;;;3.22;;
12976;SDS011;6553;48.412;9.514;2024-01-30T02:09:00;3.47;;;3.17;;
12976;SDS011;6553;48.412;9.514;2024-01-30T02:11:26;3.38;;;3.08;;
12976;SDS011;6553;48.412;9.514;2024-01-30T02:13:53;3.33;;;3.03;;
12976;SDS011;6553;48.412;9.514;2024-01-30T02:16:19;3.72;;;3.42;;
12976;SDS011;6553;48.412;9.514;2024-01-30T02:18:45;3.33;;;3.03;;
12976;SDS011;6553;48.412;9.514;2024-01-30T02:21:12;3.10;;;2.90;;
12976;SDS011;6553;48.412;9.514;2024-01-30T02:23:43;3.08;;;2.78;;
12976;SDS011;6553;48.412;9.514;2024-01-30T02:26:11;3.42;;;3.13;;
12976;SDS011;6553;48.412;9.514;2024-01-30T02:28:38;3.05;;;2.85;;
12976;SDS011;6553;48.412;9.514;2024-01-30T02:31:04;3.30;;;3.08;;
12976;SDS011;6553;48.412;9.514;2024-01-30T02:33:30;3.53;;;3.22;;
12976;SDS011;6553;48.412;9.514;2024-01-30T02:35:56;3.25;;;2.95;;
12976;SDS011;6553;48.412;9.514;2024-01-30T02:38:22;3.33;;;3.03;;
12976;SDS011;6553;48.412;9.514;2024-01-30T02:40:48;3.60;;;3.30;;
12976;SDS011;6553;48.412;9.514;2024-01-30T02:43:15;3.10;;;2.80;;
12976;SDS011;6553;48.412;9.514;2024-01-30T02:45:42;3.70;;;3.40;;
12976;SDS011;6553;48.412;9.514;2024-01-30T02:48:08;3.45;;;3.15;;
12976;SDS011;6553;48.412;9.514;2024-01-30T02:50:33;3.53;;;3.22;;
12976;SDS011;6553;48.412;9.514;2024-01-30T02:52:59;2.95;;;2.70;;
12976;SDS011;6553;48.412;9.514;2024-01-30T02:55:25;3.45;;;3.15;;
12976;SDS011;6553;48.412;9.514;2024-01-30T02:57:51;3.13;;;2.83;;
12976;SDS011;6553;48.412;9.514;2024-01-30T03:00:16;3.65;;;3.35;;
12976;SDS011;6553;48.412;9.514;2024-01-30T03:02:44;3.17;;;2.97;;
12976;SDS011;6553;48.412;9.514;2024-01-30T03:05:10;3.38;;;3.08;;
12976;SDS011;6553;48.412;9.514;2024-01-30T03:07:36;3.13;;;2.92;;
12976;SDS011;6553;48.412;9.514;2024-01-30T03:10:02;2.97;;;2.78;;
12976;SDS011;6553;48.412;9.514;2024-01-30T03:12:31;3.95;;;3.55;;
12976;SDS011;6553;48.412;9.514;2024-01-30T03:14:57;3.08;;;2.88;;
12976;SDS011;6553;48.412;9.514;2024-01-30T03:17:22;3.20;;;2.90;;
12976;SDS011;6553;48.412;9.514;2024-01-30T03:19:49;3.30;;;3.00;;
12976;SDS011;6553;48.412;9.514;2024-01-30T03:22:15;3.10;;;2.83;;
12976;SDS011;6553;48.412;9.514;2024-01-30T03:24:41;3.10;;;2.90;;
12976;SDS011;6553;48.412;9.514;2024-01-30T03:27:06;3.13;;;2.83;;
12976;SDS011;6553;48.412;9.514;2024-01-30T03:29:33;2.95;;;2.75;;
12976;SDS011;6553;48.412;9.514;2024-01-30T03:31:59;2.85;;;2.65;;
12976;SDS011;6553;48.412;9.514;2024-01-30T03:34:24;3.30;;;3.00;;
12976;SDS011;6553;48.412;9.514;2024-01-30T03:36:50;3.05;;;2.80;;
12976;SDS011;6553;48.412;9.514;2024-01-30T03:39:16;3.45;;;3.15;;
12976;SDS011;6553;48.412;9.514;2024-01-30T03:41:42;3.15;;;2.85;;
12976;SDS011;6553;48.412;9.514;2024-01-30T03:44:09;3.10;;;2.90;;
12976;SDS011;6553;48.412;9.514;2024-01-30T03:46:35;3.13;;;2.83;;
12976;SDS011;6553;48.412;9.514;2024-01-30T03:49:01;3.30;;;3.00;;
12976;SDS011;6553;48.412;9.514;2024-01-30T03:51:27;2.70;;;2.50;;
12976;SDS011;6553;48.412;9.514;2024-01-30T03:53:53;3.53;;;3.22;;
12976;SDS011;6553;48.412;9.514;2024-01-30T03:56:19;3.10;;;2.80;;
12976;SDS011;6553;48.412;9.514;2024-01-30T03:58:44;4.80;;;3.08;;
12976;SDS011;6553;48.412;9.514;2024-01-30T04:01:13;3.35;;;3.05;;
12976;SDS011;6553;48.412;9.514;2024-01-30T04:03:40;3.47;;;2.83;;
12976;SDS011;6553;48.412;9.514;2024-01-30T04:06:06;3.33;;;3.03;;
12976;SDS011;6553;48.412;9.514;2024-01-30T04:08:32;2.78;;;2.58;;
12976;SDS011;6553;48.412;9.514;2024-01-30T04:10:58;3.33;;;3.03;;
12976;SDS011;6553;48.412;9.514;2024-01-30T04:13:27;3.28;;;2.97;;
12976;SDS011;6553;48.412;9.514;2024-01-30T04:15:53;3.15;;;2.95;;
12976;SDS011;6553;48.412;9.514;2024-01-30T04:18:20;3.38;;;3.00;;
12976;SDS011;6553;48.412;9.514;2024-01-30T04:20:46;3.30;;;3.00;;
12976;SDS011;6553;48.412;9.514;2024-01-30T04:23:11;2.90;;;2.70;;
12976;SDS011;6553;48.412;9.514;2024-01-30T04:25:37;2.90;;;2.70;;
12976;SDS011;6553;48.412;9.514;2024-01-30T04:28:03;3.20;;;2.90;;
12976;SDS011;6553;48.412;9.514;2024-01-30T04:30:29;3.42;;;3.13;;
12976;SDS011;6553;48.412;9.514;2024-01-30T04:32:55;3.30;;;3.00;;
12976;SDS011;6553;48.412;9.514;2024-01-30T04:35:20;3.00;;;2.80;;
12976;SDS011;6553;48.412;9.514;2024-01-30T04:37:49;3.42;;;3.13;;
12976;SDS011;6553;48.412;9.514;2024-01-30T04:40:17;3.47;;;2.97;;
12976;SDS011;6553;48.412;9.514;2024-01-30T04:42:43;3.45;;;3.15;;
12976;SDS011;6553;48.412;9.514;2024-01-30T04:45:09;3.13;;;2.85;;
12976;SDS011;6553;48.412;9.514;2024-01-30T04:47:35;2.80;;;2.60;;
12976;SDS011;6553;48.412;9.514;2024-01-30T04:50:01;3.60;;;3.30;;
12976;SDS011;6553;48.412;9.514;2024-01-30T04:52:29;2.88;;;2.67;;
12976;SDS011;6553;48.412;9.514;2024-01-30T04:54:55;2.90;;;2.70;;
12976;SDS011;6553;48.412;9.514;2024-01-30T04:57:21;3.17;;;2.88;;
12976;SDS011;6553;48.412;9.514;2024-01-30T04:59:46;3.17;;;2.90;;
12976;SDS011;6553;48.412;9.514;2024-01-30T05:02:12;3.17;;;2.88;;
12976;SDS011;6553;48.412;9.514;2024-01-30T05:04:38;2.85;;;2.65;;
12976;SDS011;6553;48.412;9.514;2024-01-30T05:07:05;2.72;;;2.53;;
12976;SDS011;6553;48.412;9.514;2024-01-30T05:09:31;2.75;;;2.55;;
12976;SDS011;6553;48.412;9.514;2024-01-30T05:11:57;2.95;;;2.65;;
12976;SDS011;6553;48.412;9.514;2024-01-30T05:14:23;3.15;;;2.85;;
12976;SDS011;6553;48.412;9.514;2024-01-30T05:16:49;3.88;;;3.22;;
12976;SDS011;6553;48.412;9.514;2024-01-30T05:19:14;2.75;;;2.55;;
12976;SDS011;6553;48.412;9.514;2024-01-30T05:21:40;2.80;;;2.58;;
12976;SDS011;6553;48.412;9.514;2024-01-30T05:24:06;3.33;;;3.05;;
12976;SDS011;6553;48.412;9.514;2024-01-30T05:26:34;3.10;;;2.80;;
12976;SDS011;6553;48.412;9.514;2024-01-30T05:29:00;3.40;;;2.65;;
12976;SDS011;6553;48.412;9.514;2024-01-30T05:31:26;3.40;;;3.10;;
12976;SDS011;6553;48.412;9.514;2024-01-30T05:33:52;3.65;;;3.35;;
12976;SDS011;6553;48.412;9.514;2024-01-30T05:36:18;3.33;;;3.03;;
12976;SDS011;6553;48.412;9.514;2024-01-30T05:38:43;2.90;;;2.70;;
12976;SDS011;6553;48.412;9.514;2024-01-30T05:41:09;3.22;;;3.03;;
12976;SDS011;6553;48.412;9.514;2024-01-30T05:43:35;3.00;;;2.80;;
12976;SDS011;6553;48.412;9.514;2024-01-30T05:46:00;3.30;;;3.00;;
12976;SDS011;6553;48.412;9.514;2024-01-30T05:48:26;4.40;;;2.80;;
12976;SDS011;6553;48.412;9.514;2024-01-30T05:50:52;3.35;;;3.05;;
12976;SDS011;6553;48.412;9.514;2024-01-30T05:53:17;3.08;;;2.88;;
12976;SDS011;6553;48.412;9.514;2024-01-30T05:55:43;3.25;;;3.03;;
12976;SDS011;6553;48.412;9.514;2024-01-30T05:58:09;3.40;;;3.10;;
12976;SDS011;6553;48.412;9.514;2024-01-30T06:00:35;3.10;;;2.80;;
12976;SDS011;6553;48.412;9.514;2024-01-30T06:03:00;3.22;;;3.03;;
12976;SDS011;6553;48.412;9.514;2024-01-30T06:05:26;3.10;;;2.80;;
12976;SDS011;6553;48.412;9.514;2024-01-30T06:07:52;3.40;;;3.10;;
12976;SDS011;6553;48.412;9.514;2024-01-30T06:10:17;3.00;;;2.72;;
12976;SDS011;6553;48.412;9.514;2024-01-30T06:12:43;3.22;;;2.97;;
12976;SDS011;6553;48.412;9.514;2024-01-30T06:15:09;2.95;;;2.72;;
12976;SDS011;6553;48.412;9.514;2024-01-30T06:17:37;2.80;;;2.60;;
12976;SDS011;6553;48.412;9.514;2024-01-30T06:20:03;3.60;;;3.30;;
12976;SDS011;6553;48.412;9.514;2024-01-30T06:22:29;3.08;;;2.72;;
12976;SDS011;6553;48.412;9.514;2024-01-30T06:24:55;3.55;;;3.00;;
12976;SDS011;6553;48.412;9.514;2024-01-30T06:27:21;3.47;;;3.17;;
12976;SDS011;6553;48.412;9.514;2024-01-30T06:29:46;3.80;;;3.38;;
12976;SDS011;6553;48.412;9.514;2024-01-30T06:32:12;4.38;;;3.72;;
12976;SDS011;6553;48.412;9.514;2024-01-30T06:34:38;4.03;;;3.63;;
12976;SDS011;6553;48.412;9.514;2024-01-30T06:37:05;5.57;;;5.00;;
12976;SDS011;6553;48.412;9.514;2024-01-30T06:39:31;6.60;;;5.60;;
12976;SDS011;6553;48.412;9.514;2024-01-30T06:41:56;5.30;;;4.80;;
12976;SDS011;6553;48.412;9.514;2024-01-30T06:44:22;4.80;;;4.28;;
12976;SDS011;6553;48.412;9.514;2024-01-30T06:46:48;4.88;;;4.47;;
12976;SDS011;6553;48.412;9.514;2024-01-30T06:49:13;5.47;;;4.90;;
12976;SDS011;6553;48.412;9.514;2024-01-30T06:51:39;5.35;;;4.85;;
12976;SDS011;6553;48.412;9.514;2024-01-30T06:54:05;4.72;;;4.18;;
12976;SDS011;6553;48.412;9.514;2024-01-30T06:56:31;5.10;;;4.60;;
12976;SDS011;6553;48.412;9.514;2024-01-30T06:58:56;5.72;;;4.75;;
12976;SDS011;6553;48.412;9.514;2024-01-30T07:01:28;5.10;;;4.60;;
12976;SDS011;6553;48.412;9.514;2024-01-30T07:03:54;5.63;;;5.00;;
12976;SDS011;6553;48.412;9.514;2024-01-30T07:06:20;6.10;;;5.05;;
12976;SDS011;6553;48.412;9.514;2024-01-30T07:08:47;5.55;;;4.88;;
12976;SDS011;6553;48.412;9.514;2024-01-30T07:11:20;5.70;;;5.10;;
12976;SDS011;6553;48.412;9.514;2024-01-30T07:13:47;6.80;;;5.65;;
12976;SDS011;6553;48.412;9.514;2024-01-30T07:16:14;6.28;;;5.50;;
12976;SDS011;6553;48.412;9.514;2024-01-30T07:18:40;7.28;;;6.30;;
12976;SDS011;6553;48.412;9.514;2024-01-30T07:21:06;6.93;;;6.10;;
12976;SDS011;6553;48.412;9.514;2024-01-30T07:23:32;8.40;;;6.25;;
12976;SDS011;6553;48.412;9.514;2024-01-30T07:25:59;6.47;;;5.80;;
12976;SDS011;6553;48.412;9.514;2024-01-30T07:28:26;7.03;;;6.32;;
12976;SDS011;6553;48.412;9.514;2024-01-30T07:30:52;6.95;;;6.22;;
12976;SDS011;6553;48.412;9.514;2024-01-30T07:33:18;6.93;;;6.07;;
12976;SDS011;6553;48.412;9.514;2024-01-30T07:35:44;7.75;;;6.93;;
12976;SDS011;6553;48.412;9.514;2024-01-30T07:38:11;7.35;;;6.65;;
12976;SDS011;6553;48.412;9.514;2024-01-30T07:40:36;6.97;;;6.28;;
12976;SDS011;6553;48.412;9.514;2024-01-30T07:43:02;7.35;;;6.15;;
12976;SDS011;6553;48.412;9.514;2024-01-30T07:45:28;7.90;;;6.75;;
12976;SDS011;6553;48.412;9.514;2024-01-30T07:47:57;6.97;;;6.28;;
12976;SDS011;6553;48.412;9.514;2024-01-30T07:50:24;8.00;;;7.22;;
12976;SDS011;6553;48.412;9.514;2024-01-30T07:52:50;8.02;;;7.20;;
12976;SDS011;6553;48.412;9.514;2024-01-30T07:55:20;7.70;;;6.85;;
12976;SDS011;6553;48.412;9.514;2024-01-30T07:57:49;7.53;;;6.82;;
12976;SDS011;6553;48.412;9.514;2024-01-30T08:00:17;7.78;;;7.00;;
12976;SDS011;6553;48.412;9.514;2024-01-30T08:02:45;7.78;;;6.97;;
12976;SDS011;6553;48.412;9.514;2024-01-30T08:05:11;7.72;;;6.97;;
12976;SDS011;6553;48.412;9.514;2024-01-30T08:07:37;8.98;;;6.70;;
12976;SDS011;6553;48.412;9.514;2024-01-30T08:10:02;8.32;;;7.53;;
12976;SDS011;6553;48.412;9.514;2024-01-30T08:12:28;8.48;;;7.57;;
12976;SDS011;6553;48.412;9.514;2024-01-30T08:14:54;8.30;;;7.03;;
12976;SDS011;6553;48.412;9.514;2024-01-30T08:17:20;8.02;;;7.22;;
12976;SDS011;6553;48.412;9.514;2024-01-30T08:19:45;8.07;;;7.28;;
12976;SDS011;6553;48.412;9.514;2024-01-30T08:22:11;8.60;;;7.15;;
12976;SDS011;6553;48.412;9.514;2024-01-30T08:24:37;8.27;;;7.47;;
12976;SDS011;6553;48.412;9.514;2024-01-30T08:27:05;7.80;;;6.97;;
12976;SDS011;6553;48.412;9.514;2024-01-30T08:29:34;8.82;;;7.38;;
12976;SDS011;6553;48.412;9.514;2024-01-30T08:32:04;7.43;;;6.72;;
12976;SDS011;6553;48.412;9.514;2024-01-30T08:34:31;7.03;;;6.40;;
12976;SDS011;6553;48.412;9.514;2024-01-30T08:36:57;7.70;;;7.00;;
12976;SDS011;6553;48.412;9.514;2024-01-30T08:39:23;8.80;;;7.10;;
12976;SDS011;6553;48.412;9.514;2024-01-30T08:41:49;8.07;;;6.82;;
12976;SDS011;6553;48.412;9.514;2024-01-30T08:44:15;7.53;;;6.80;;
12976;SDS011;6553;48.412;9.514;2024-01-30T08:46:42;8.45;;;7.65;;
12976;SDS011;6553;48.412;9.514;2024-01-30T08:49:11;7.95;;;7.15;;
12976;SDS011;6553;48.412;9.514;2024-01-30T08:51:38;7.75;;;7.00;;
12976;SDS011;6553;48.412;9.514;2024-01-30T08:54:05;7.65;;;6.88;;
12976;SDS011;6553;48.412;9.514;2024-01-30T08:56:30;7.88;;;7.07;;
12976;SDS011;6553;48.412;9.514;2024-01-30T08:58:56;8.63;;;7.35;;
12976;SDS011;6553;48.412;9.514;2024-01-30T09:01:22;8.35;;;7.55;;
12976;SDS011;6553;48.412;9.514;2024-01-30T09:03:48;7.47;;;6.78;;
12976;SDS011;6553;48.412;9.514;2024-01-30T09:06:13;8.10;;;7.30;;
12976;SDS011;6553;48.412;9.514;2024-01-30T09:08:39;9.15;;;8.25;;
12976;SDS011;6553;48.412;9.514;2024-01-30T09:11:12;8.00;;;7.20;;
12976;SDS011;6553;48.412;9.514;2024-01-30T09:13:39;8.98;;;8.07;;
12976;SDS011;6553;48.412;9.514;2024-01-30T09:16:05;8.68;;;7.45;;
12976;SDS011;6553;48.412;9.514;2024-01-30T09:18:32;7.88;;;7.07;;
12976;SDS011;6553;48.412;9.514;2024-01-30T09:20:58;8.57;;;7.68;;
12976;SDS011;6553;48.412;9.514;2024-01-30T09:23:24;7.25;;;6.65;;
12976;SDS011;6553;48.412;9.514;2024-01-30T09:25:50;7.32;;;6.63;;
12976;SDS011;6553;48.412;9.514;2024-01-30T09:28:17;7.10;;;6.40;;
12976;SDS011;6553;48.412;9.514;2024-01-30T09:30:43;8.38;;;7.55;;
12976;SDS011;6553;48.412;9.514;2024-01-30T09:33:08;7.28;;;6.53;;
12976;SDS011;6553;48.412;9.514;2024-01-30T09:35:38;6.70;;;6.10;;
12976;SDS011;6553;48.412;9.514;2024-01-30T09:38:04;7.20;;;6.60;;
12976;SDS011;6553;48.412;9.514;2024-01-30T09:40:30;7.43;;;6.72;;
12976;SDS011;6553;48.412;9.514;2024-01-30T09:42:56;7.32;;;6.63;;
12976;SDS011;6553;48.412;9.514;2024-01-30T09:45:25;7.18;;;6.47;;
12976;SDS011;6553;48.412;9.514;2024-01-30T09:47:51;7.03;;;6.43;;
12976;SDS011;6553;48.412;9.514;2024-01-30T09:50:18;7.22;;;6.38;;
12976;SDS011;6553;48.412;9.514;2024-01-30T09:52:45;6.43;;;5.82;;
12976;SDS011;6553;48.412;9.514;2024-01-30T09:55:12;6.35;;;5.75;;
12976;SDS011;6553;48.412;9.514;2024-01-30T09:57:38;6.10;;;5.50;;
12976;SDS011;6553;48.412;9.514;2024-01-30T10:00:04;6.60;;;6.00;;
12976;SDS011;6553;48.412;9.514;2024-01-30T10:02:38;6.70;;;6.10;;
12976;SDS011;6553;48.412;9.514;2024-01-30T10:05:05;6.60;;;6.00;;
12976;SDS011;6553;48.412;9.514;2024-01-30T10:07:31;6.25;;;5.65;;
12976;SDS011;6553;48.412;9.514;2024-01-30T10:09:57;6.43;;;5.75;;
12976;SDS011;6553;48.412;9.514;2024-01-30T10:12:23;6.00;;;5.50;;
12976;SDS011;6553;48.412;9.514;2024-01-30T10:14:51;6.53;;;5.93;;
12976;SDS011;6553;48.412;9.514;2024-01-30T10:17:17;5.57;;;5.07;;
12976;SDS011;6553;48.412;9.514;2024-01-30T10:19:43;6.20;;;5.60;;
12976;SDS011;6553;48.412;9.514;2024-01-30T10:22:09;5.55;;;5.05;;
12976;SDS011;6553;48.412;9.514;2024-01-30T10:24:35;5.63;;;5.13;;
12976;SDS011;6553;48.412;9.514;2024-01-30T10:27:02;5.63;;;5.13;;
12976;SDS011;6553;48.412;9.514;2024-01-30T10:29:28;5.60;;;5.10;;
12976;SDS011;6553;48.412;9.514;2024-01-30T10:32:00;5.47;;;4.97;;
12976;SDS011;6553;48.412;9.514;2024-01-30T10:34:28;5.93;;;5.32;;
12976;SDS011;6553;48.412;9.514;2024-01-30T10:37:04;5.22;;;4.72;;
12976;SDS011;6553;48.412;9.514;2024-01-30T10:39:38;5.50;;;4.97;;
12976;SDS011;6553;48.412;9.514;2024-01-30T10:42:05;5.55;;;5.00;;
12976;SDS011;6553;48.412;9.514;2024-01-30T10:44:36;5.40;;;4.90;;
12976;SDS011;6553;48.412;9.514;2024-01-30T10:47:29;4.88;;;4.47;;
12976;SDS011;6553;48.412;9.514;2024-01-30T10:49:55;4.50;;;4.20;;
12976;SDS011;6553;48.412;9.514;2024-01-30T10:52:25;4.93;;;4.53;;
12976;SDS011;6553;48.412;9.514;2024-01-30T10:54:51;5.35;;;4.63;;
12976;SDS011;6553;48.412;9.514;2024-01-30T10:57:19;4.93;;;4.53;;
12976;SDS011;6553;48.412;9.514;2024-01-30T10:59:48;5.18;;;4.68;;
12976;SDS011;6553;48.412;9.514;2024-01-30T11:02:17;5.00;;;4.60;;
12976;SDS011;6553;48.412;9.514;2024-01-30T11:04:45;4.55;;;4.15;;
12976;SDS011;6553;48.412;9.514;2024-01-30T11:07:17;4.22;;;3.90;;
12976;SDS011;6553;48.412;9.514;2024-01-30T11:09:52;5.00;;;4.50;;
12976;SDS011;6553;48.412;9.514;2024-01-30T11:12:28;4.93;;;4.43;;
12976;SDS011;6553;48.412;9.514;2024-01-30T11:15:04;4.40;;;4.00;;
12976;SDS011;6553;48.412;9.514;2024-01-30T11:17:42;4.47;;;4.07;;
12976;SDS011;6553;48.412;9.514;2024-01-30T11:22:49;5.18;;;4.68;;
12976;SDS011;6553;48.412;9.514;2024-01-30T11:25:18;4.45;;;4.05;;
12976;SDS011;6553;48.412;9.514;2024-01-30T11:27:47;4.60;;;4.20;;
12976;SDS011;6553;48.412;9.514;2024-01-30T11:30:22;5.03;;;4.53;;
12976;SDS011;6553;48.412;9.514;2024-01-30T11:33:06;4.80;;;4.32;;
12976;SDS011;6553;48.412;9.514;2024-01-30T11:35:36;4.57;;;4.18;;
12976;SDS011;6553;48.412;9.514;2024-01-30T11:38:05;5.38;;;4.50;;
12976;SDS011;6553;48.412;9.514;2024-01-30T11:40:33;4.60;;;4.20;;
12976;SDS011;6553;48.412;9.514;2024-01-30T11:43:01;4.68;;;4.28;;
12976;SDS011;6553;48.412;9.514;2024-01-30T11:45:29;3.83;;;3.53;;
12976;SDS011;6553;48.412;9.514;2024-01-30T11:47:56;5.03;;;4.15;;
12976;SDS011;6553;48.412;9.514;2024-01-30T11:50:25;4.18;;;3.78;;
12976;SDS011;6553;48.412;9.514;2024-01-30T11:52:51;4.38;;;3.88;;
12976;SDS011;6553;48.412;9.514;2024-01-30T11:55:17;4.40;;;3.97;;
12976;SDS011;6553;48.412;9.514;2024-01-30T11:57:44;4.10;;;3.70;;
12976;SDS011;6553;48.412;9.514;2024-01-30T12:00:17;4.40;;;4.00;;
12976;SDS011;6553;48.412;9.514;2024-01-30T12:02:44;4.90;;;3.70;;
12976;SDS011;6553;48.412;9.514;2024-01-30T12:05:22;4.30;;;3.90;;
12976;SDS011;6553;48.412;9.514;2024-01-30T12:07:49;3.95;;;3.60;;
12976;SDS011;6553;48.412;9.514;2024-01-30T12:10:15;3.97;;;3.67;;
12976;SDS011;6553;48.412;9.514;2024-01-30T12:12:44;4.25;;;3.50;;
12976;SDS011;6553;48.412;9.514;2024-01-30T12:15:15;3.70;;;3.40;;
12976;SDS011;6553;48.412;9.514;2024-01-30T12:17:43;6.20;;;3.65;;
12976;SDS011;6553;48.412;9.514;2024-01-30T12:20:13;3.30;;;3.00;;
12976;SDS011;6553;48.412;9.514;2024-01-30T12:22:43;3.45;;;3.15;;
12976;SDS011;6553;48.412;9.514;2024-01-30T12:25:13;4.43;;;4.03;;
12976;SDS011;6553;48.412;9.514;2024-01-30T12:27:42;4.22;;;3.30;;
12976;SDS011;6553;48.412;9.514;2024-01-30T12:30:10;4.10;;;3.70;;
12976;SDS011;6553;48.412;9.514;2024-01-30T12:32:39;3.65;;;3.35;;
12976;SDS011;6553;48.412;9.514;2024-01-30T12:35:12;3.67;;;3.38;;
12976;SDS011;6553;48.412;9.514;2024-01-30T12:37:43;3.70;;;3.40;;
12976;SDS011;6553;48.412;9.514;2024-01-30T12:40:10;3.35;;;3.10;;
12976;SDS011;6553;48.412;9.514;2024-01-30T12:42:40;3.30;;;3.00;;
12976;SDS011;6553;48.412;9.514;2024-01-30T12:45:11;3.65;;;3.22;;
12976;SDS011;6553;48.412;9.514;2024-01-30T12:47:39;3.42;;;3.13;;
12976;SDS011;6553;48.412;9.514;2024-01-30T12:50:06;3.38;;;3.00;;
12976;SDS011;6553;48.412;9.514;2024-01-30T12:52:31;3.00;;;2.80;;
12976;SDS011;6553;48.412;9.514;2024-01-30T12:54:57;3.25;;;2.95;;
12976;SDS011;6553;48.412;9.514;2024-01-30T12:57:23;3.10;;;2.90;;
12976;SDS011;6553;48.412;9.514;2024-01-30T12:59:49;3.72;;;3.40;;
12976;SDS011;6553;48.412;9.514;2024-01-30T13:02:15;3.40;;;3.10;;
12976;SDS011;6553;48.412;9.514;2024-01-30T13:04:41;3.28;;;2.97;;
12976;SDS011;6553;48.412;9.514;2024-01-30T13:07:08;3.97;;;3.15;;
12976;SDS011;6553;48.412;9.514;2024-01-30T13:09:33;3.15;;;2.88;;
12976;SDS011;6553;48.412;9.514;2024-01-30T13:11:59;3.60;;;3.15;;
12976;SDS011;6553;48.412;9.514;2024-01-30T13:14:25;2.92;;;2.70;;
12976;SDS011;6553;48.412;9.514;2024-01-30T13:16:51;3.33;;;3.05;;
12976;SDS011;6553;48.412;9.514;2024-01-30T13:19:17;3.30;;;2.80;;
12976;SDS011;6553;48.412;9.514;2024-01-30T13:21:43;3.13;;;2.83;;
12976;SDS011;6553;48.412;9.514;2024-01-30T13:24:09;4.35;;;3.30;;
12976;SDS011;6553;48.412;9.514;2024-01-30T13:26:35;3.22;;;2.70;;
12976;SDS011;6553;48.412;9.514;2024-01-30T13:29:01;3.05;;;2.83;;
12976;SDS011;6553;48.412;9.514;2024-01-30T13:31:27;2.80;;;2.60;;
12976;SDS011;6553;48.412;9.514;2024-01-30T13:33:53;3.53;;;2.78;;
12976;SDS011;6553;48.412;9.514;2024-01-30T13:36:19;3.58;;;2.90;;
12976;SDS011;6553;48.412;9.514;2024-01-30T13:38:46;3.20;;;2.90;;
12976;SDS011;6553;48.412;9.514;2024-01-30T13:41:12;3.13;;;2.80;;
12976;SDS011;6553;48.412;9.514;2024-01-30T13:43:38;3.70;;;3.05;;
12976;SDS011;6553;48.412;9.514;2024-01-30T13:46:04;2.97;;;2.67;;
12976;SDS011;6553;48.412;9.514;2024-01-30T13:48:31;3.38;;;3.08;;
12976;SDS011;6553;48.412;9.514;2024-01-30T13:50:56;2.70;;;2.50;;
12976;SDS011;6553;48.412;9.514;2024-01-30T13:53:22;3.15;;;2.85;;
12976;SDS011;6553;48.412;9.514;2024-01-30T13:55:48;2.80;;;2.50;;
12976;SDS011;6553;48.412;9.514;2024-01-30T13:58:14;2.80;;;2.60;;
12976;SDS011;6553;48.412;9.514;2024-01-30T14:00:40;3.08;;;2.70;;
12976;SDS011;6553;48.412;9.514;2024-01-30T14:03:06;3.50;;;3.00;;
12976;SDS011;6553;48.412;9.514;2024-01-30T14:05:32;3.65;;;3.03;;
12976;SDS011;6553;48.412;9.514;2024-01-30T14:07:57;3.60;;;2.80;;
12976;SDS011;6553;48.412;9.514;2024-01-30T14:10:25;3.00;;;2.80;;
12976;SDS011;6553;48.412;9.514;2024-01-30T14:12:51;2.63;;;2.42;;
12976;SDS011;6553;48.412;9.514;2024-01-30T14:15:17;4.07;;;3.00;;
12976;SDS011;6553;48.412;9.514;2024-01-30T14:17:43;2.83;;;2.58;;
12976;SDS011;6553;48.412;9.514;2024-01-30T14:20:10;2.70;;;2.50;;
12976;SDS011;6553;48.412;9.514;2024-01-30T14:22:36;2.42;;;2.22;;
12976;SDS011;6553;48.412;9.514;2024-01-30T14:25:02;2.55;;;2.35;;
12976;SDS011;6553;48.412;9.514;2024-01-30T14:27:29;3.72;;;2.83;;
12976;SDS011;6553;48.412;9.514;2024-01-30T14:29:56;2.90;;;2.50;;
12976;SDS011;6553;48.412;9.514;2024-01-30T14:32:22;2.65;;;2.20;;
12976;SDS011;6553;48.412;9.514;2024-01-30T14:34:48;2.95;;;2.75;;
12976;SDS011;6553;48.412;9.514;2024-01-30T14:37:17;2.80;;;2.60;;
12976;SDS011;6553;48.412;9.514;2024-01-30T14:39:45;2.63;;;2.42;;
12976;SDS011;6553;48.412;9.514;2024-01-30T14:42:11;3.00;;;2.78;;
12976;SDS011;6553;48.412;9.514;2024-01-30T14:44:36;4.05;;;2.55;;
12976;SDS011;6553;48.412;9.514;2024-01-30T14:47:02;2.50;;;2.30;;
12976;SDS011;6553;48.412;9.514;2024-01-30T14:49:28;3.05;;;2.50;;
12976;SDS011;6553;48.412;9.514;2024-01-30T14:51:54;2.88;;;2.67;;
12976;SDS011;6553;48.412;9.514;2024-01-30T14:54:19;3.20;;;2.90;;
12976;SDS011;6553;48.412;9.514;2024-01-30T14:56:45;2.70;;;2.50;;
12976;SDS011;6553;48.412;9.514;2024-01-30T14:59:11;2.92;;;2.60;;
12976;SDS011;6553;48.412;9.514;2024-01-30T15:01:37;2.40;;;2.20;;